Time;durP1;ratioP1;P1;durP2;ratioP2;P2;SDS_P1;SDS_P2;PMS_P1;PMS_P2;Temp;Humidity;BMP_temperature;BMP_pressure;BME280_temperature;BME280_humidity;BME280_pressure;Samples;Min_cycle;Max_cycle;Signal;HPM_P1;HPM_P2
2023/06/03 00:02:16;;;;;;;10.07;4.22;;;;;;;14.52;100.00;98734.13;5077752;28;20051;-40
2023/06/03 00:04:42;;;;;;;6.05;4.22;;;;;;;14.51;100.00;98740.28;5040808;28;20075;-37
2023/06/03 00:07:10;;;;;;;10.10;4.82;;;;;;;14.47;100.00;98720.50;5048432;28;20052;-39
2023/06/03 00:09:36;;;;;;;7.25;4.78;;;;;;;14.49;100.00;98720.41;5076540;28;20040;-39
2023/06/03 00:12:02;;;;;;;8.00;4.60;;;;;;;14.43;100.00;98718.19;5078736;28;20051;-40
2023/06/03 00:14:28;;;;;;;7.53;4.72;;;;;;;14.40;100.00;98712.22;5067195;28;20032;-39
2023/06/03 00:16:54;;;;;;;9.23;4.88;;;;;;;14.38;100.00;98726.34;5061838;28;20503;-40
2023/06/03 00:19:20;;;;;;;7.20;4.13;;;;;;;14.23;100.00;98711.63;5084746;28;20035;-39
2023/06/03 00:21:49;;;;;;;10.40;5.10;;;;;;;14.30;100.00;98733.81;5088800;28;20036;-39
2023/06/03 00:24:16;;;;;;;9.63;5.03;;;;;;;14.14;100.00;98720.03;5090933;28;20144;-39
2023/06/03 00:26:42;;;;;;;9.50;4.95;;;;;;;14.26;100.00;98763.69;5050652;28;20044;-39
2023/06/03 00:29:09;;;;;;;8.70;4.95;;;;;;;14.26;100.00;98771.53;5071101;28;20415;-39
2023/06/03 00:31:35;;;;;;;8.55;4.90;;;;;;;14.24;100.00;98770.78;5084948;28;20040;-37
2023/06/03 00:34:01;;;;;;;7.50;4.53;;;;;;;14.19;100.00;98781.53;5070463;28;21740;-39
2023/06/03 00:36:27;;;;;;;9.23;4.80;;;;;;;14.16;100.00;98778.31;5088869;28;20090;-39
2023/06/03 00:38:53;;;;;;;10.93;5.40;;;;;;;14.04;100.00;98763.38;5068034;28;20529;-38
2023/06/03 00:41:19;;;;;;;8.15;4.82;;;;;;;14.18;100.00;98782.50;5085916;28;20043;-38
2023/06/03 00:43:46;;;;;;;8.60;4.90;;;;;;;14.19;100.00;98791.16;5060543;28;20052;-39
2023/06/03 00:46:11;;;;;;;9.65;4.97;;;;;;;14.19;100.00;98788.53;5070649;28;20477;-39
2023/06/03 00:48:38;;;;;;;8.65;4.90;;;;;;;14.19;100.00;98785.94;5070549;28;20040;-39
2023/06/03 00:51:05;;;;;;;10.70;5.68;;;;;;;14.14;100.00;98777.53;5069521;28;20050;-39
2023/06/03 00:53:30;;;;;;;10.80;6.43;;;;;;;14.15;100.00;98784.47;5071151;28;20553;-39
2023/06/03 00:55:56;;;;;;;8.90;5.30;;;;;;;14.13;100.00;98775.91;5089534;28;20052;-39
2023/06/03 00:58:23;;;;;;;10.05;5.47;;;;;;;14.13;100.00;98771.47;5034294;28;20534;-40
2023/06/03 01:00:49;;;;;;;8.82;5.78;;;;;;;14.13;100.00;98763.63;5062429;28;20546;-38
2023/06/03 01:03:19;;;;;;;9.88;6.15;;;;;;;14.15;100.00;98760.94;5070373;28;20040;-39
2023/06/03 01:05:49;;;;;;;11.98;5.95;;;;;;;14.13;100.00;98754.97;5086826;28;20048;-39
2023/06/03 01:08:25;;;;;;;8.32;5.95;;;;;;;14.13;100.00;98752.38;5085992;28;20061;-39
2023/06/03 01:11:01;;;;;;;10.10;5.88;;;;;;;14.11;100.00;98749.84;5052172;28;20043;-38
2023/06/03 01:14:05;;;;;;;11.55;6.15;;;;;;;14.12;100.00;98745.44;5089813;28;20040;-38
2023/06/03 01:16:31;;;;;;;10.60;5.95;;;;;;;14.11;100.00;98733.31;5057452;28;20067;-38
2023/06/03 01:19:00;;;;;;;10.10;5.93;;;;;;;14.09;100.00;98729.94;5070145;28;20131;-38
2023/06/03 01:21:34;;;;;;;11.15;6.32;;;;;;;14.07;100.00;98729.22;5071176;28;20039;-39
2023/06/03 01:24:00;;;;;;;10.60;6.63;;;;;;;14.07;100.00;98726.63;5090599;28;20063;-40
2023/06/03 01:26:28;;;;;;;10.13;6.20;;;;;;;13.92;100.00;98710.94;5054795;28;20528;-37
2023/06/03 01:28:55;;;;;;;13.32;7.32;;;;;;;14.06;100.00;98725.78;5051944;28;20039;-40
2023/06/03 01:31:21;;;;;;;14.02;7.05;;;;;;;14.03;100.00;98730.38;5068177;28;20051;-39
2023/06/03 01:33:47;;;;;;;18.10;7.07;;;;;;;14.00;100.00;98726.16;5047484;28;20051;-38
2023/06/03 01:36:13;;;;;;;11.45;6.68;;;;;;;13.99;100.00;98729.69;5055974;28;20479;-39
2023/06/03 01:38:40;;;;;;;10.52;6.75;;;;;;;13.94;100.00;98727.38;5087252;28;20047;-39
2023/06/03 01:41:06;;;;;;;10.25;6.70;;;;;;;13.68;100.00;98690.75;5047600;28;20837;-38
2023/06/03 01:43:32;;;;;;;13.00;6.35;;;;;;;13.85;100.00;98735.81;5070036;28;20032;-38
2023/06/03 01:45:58;;;;;;;12.00;6.32;;;;;;;13.80;100.00;98731.81;5053220;28;20039;-38
2023/06/03 01:48:24;;;;;;;11.45;5.60;;;;;;;13.74;100.00;98733.03;5043894;28;20128;-38
2023/06/03 01:50:50;;;;;;;9.75;5.97;;;;;;;13.67;100.00;98730.88;5035276;28;20048;-38
2023/06/03 01:53:19;;;;;;;10.43;5.57;;;;;;;13.62;100.00;98736.38;5067908;28;20047;-38
2023/06/03 01:55:46;;;;;;;10.77;5.95;;;;;;;13.54;100.00;98730.81;5052239;28;20043;-38
2023/06/03 01:58:13;;;;;;;8.00;5.20;;;;;;;13.47;100.00;98742.56;5068934;28;20384;-38
2023/06/03 02:00:41;;;;;;;8.00;4.97;;;;;;;13.42;100.00;98742.00;5065706;28;20135;-39
2023/06/03 02:03:06;;;;;;;15.18;5.28;;;;;;;13.36;100.00;98742.38;5065929;28;20188;-39
2023/06/03 02:05:32;;;;;;;11.88;4.90;;;;;;;13.29;100.00;98754.97;5080212;28;20040;-37
2023/06/03 02:07:58;;;;;;;9.55;4.90;;;;;;;13.23;100.00;98764.94;5051334;28;20123;-39
2023/06/03 02:10:24;;;;;;;8.10;4.20;;;;;;;13.16;100.00;98764.44;5051957;28;20592;-39
2023/06/03 02:12:50;;;;;;;7.82;3.97;;;;;;;13.09;100.00;98760.47;5084104;28;20707;-38
2023/06/03 02:15:17;;;;;;;8.23;3.97;;;;;;;13.06;100.00;98755.44;5050311;28;20047;-38
2023/06/03 02:17:43;;;;;;;6.55;3.58;;;;;;;13.00;100.00;98748.81;5084271;28;20085;-39
2023/06/03 02:20:29;;;;;;;8.77;3.95;;;;;;;12.99;100.00;98760.19;5051284;28;20043;-38
2023/06/03 02:22:57;;;;;;;7.45;3.33;;;;;;;12.90;100.00;98754.69;5065513;28;20530;-38
2023/06/03 02:25:24;;;;;;;7.80;3.45;;;;;;;12.87;100.00;98760.09;5065921;28;20042;-38
2023/06/03 02:27:50;;;;;;;6.78;3.22;;;;;;;12.81;100.00;98753.44;5068727;28;20032;-39
2023/06/03 02:30:16;;;;;;;5.38;2.92;;;;;;;12.80;100.00;98762.19;5052707;28;20052;-38
2023/06/03 02:32:42;;;;;;;6.40;3.35;;;;;;;12.73;100.00;98760.88;5084845;28;20040;-39
2023/06/03 02:35:08;;;;;;;6.53;3.00;;;;;;;12.69;100.00;98765.44;5082842;28;20081;-39
2023/06/03 02:37:34;;;;;;;5.00;2.35;;;;;;;12.68;100.00;98768.13;5084925;28;20116;-39
2023/06/03 02:40:00;;;;;;;5.13;2.15;;;;;;;12.64;100.00;98767.47;5067179;28;20127;-39
2023/06/03 02:42:28;;;;;;;3.97;2.30;;;;;;;12.62;100.00;98764.09;5052024;28;20047;-40
2023/06/03 02:44:55;;;;;;;5.50;2.60;;;;;;;12.57;100.00;98763.50;5068596;28;20567;-38
2023/06/03 02:47:22;;;;;;;3.85;2.10;;;;;;;12.57;100.00;98771.34;5052402;28;20530;-38
2023/06/03 02:49:49;;;;;;;5.47;2.45;;;;;;;12.54;100.00;98765.47;5068619;28;20048;-38
2023/06/03 02:52:16;;;;;;;2.90;2.00;;;;;;;12.50;100.00;98769.19;5063605;28;20419;-39
2023/06/03 02:54:42;;;;;;;4.63;2.00;;;;;;;12.20;100.00;98717.84;5065750;28;20064;-37
2023/06/03 02:57:08;;;;;;;3.05;1.80;;;;;;;12.44;100.00;98764.31;5060255;28;20036;-38
2023/06/03 02:59:34;;;;;;;3.55;1.95;;;;;;;12.45;100.00;98755.56;5065164;28;20047;-38
2023/06/03 03:02:00;;;;;;;4.28;1.48;;;;;;;12.45;100.00;98755.56;5086435;28;20490;-37
2023/06/03 03:04:26;;;;;;;2.10;1.15;;;;;;;12.42;100.00;98751.34;5070056;28;20085;-38
2023/06/03 03:06:54;;;;;;;1.92;1.02;;;;;;;12.40;100.00;98755.00;5080132;28;20511;-37
2023/06/03 03:09:20;;;;;;;2.30;1.10;;;;;;;12.25;100.00;98747.09;5061818;28;20055;-37
2023/06/03 03:11:47;;;;;;;2.08;1.15;;;;;;;12.37;100.00;98771.63;5041205;28;20039;-38
2023/06/03 03:14:14;;;;;;;2.95;1.30;;;;;;;12.39;100.00;98766.34;5048486;28;20537;-38
2023/06/03 03:16:41;;;;;;;2.72;1.75;;;;;;;12.38;100.00;98773.31;5059248;28;20408;-38
2023/06/03 03:19:08;;;;;;;3.63;1.40;;;;;;;12.38;100.00;98781.13;5059567;28;20625;-38
2023/06/03 03:21:35;;;;;;;3.38;1.67;;;;;;;12.37;100.00;98779.44;5028508;28;20044;-38
2023/06/03 03:24:06;;;;;;;1.67;1.20;;;;;;;12.38;100.00;98783.75;5058151;28;20127;-38
2023/06/03 03:26:35;;;;;;;2.22;1.00;;;;;;;12.38;100.00;98785.50;5049653;28;20040;-40
2023/06/03 03:29:00;;;;;;;2.17;1.20;;;;;;;12.35;100.00;98780.47;5068358;28;20058;-38
2023/06/03 03:31:28;;;;;;;1.90;0.93;;;;;;;12.32;100.00;98786.69;5064350;28;20082;-39
2023/06/03 03:33:54;;;;;;;1.25;1.08;;;;;;;12.31;100.00;98788.44;5067382;28;20415;-38
2023/06/03 03:36:24;;;;;;;1.55;0.90;;;;;;;12.31;100.00;98792.81;5067080;28;20036;-38
2023/06/03 03:39:04;;;;;;;1.48;0.95;;;;;;;12.31;100.00;98795.41;5065406;28;20040;-38
2023/06/03 03:41:34;;;;;;;1.33;1.13;;;;;;;12.28;100.00;98808.63;5081167;28;20060;-40
2023/06/03 03:44:02;;;;;;;2.35;1.67;;;;;;;12.27;100.00;98807.78;5058627;28;20055;-37
2023/06/03 03:46:28;;;;;;;2.40;1.52;;;;;;;12.26;100.00;98800.88;5068513;28;20146;-40
2023/06/03 03:48:54;;;;;;;2.08;0.90;;;;;;;12.24;100.00;98807.97;5082845;28;20040;-39
2023/06/03 03:51:20;;;;;;;1.60;0.90;;;;;;;12.18;100.00;98800.47;5066306;28;20137;-38
2023/06/03 03:53:47;;;;;;;0.98;0.80;;;;;;;12.25;100.00;98812.22;5043819;28;20048;-38
2023/06/03 03:56:22;;;;;;;1.52;1.10;;;;;;;12.24;100.00;98812.34;5070872;28;20051;-39
2023/06/03 03:58:53;;;;;;;1.52;1.00;;;;;;;12.21;100.00;98802.91;5069848;28;20052;-38
2023/06/03 04:01:28;;;;;;;1.10;0.90;;;;;;;12.10;100.00;98788.78;5060346;28;20040;-38
2023/06/03 04:04:10;;;;;;;1.00;0.75;;;;;;;12.15;100.00;98805.00;5037338;28;20050;-37
2023/06/03 04:06:38;;;;;;;1.83;1.10;;;;;;;12.16;100.00;98809.28;5070050;28;20123;-38
2023/06/03 04:09:06;;;;;;;2.58;1.33;;;;;;;12.15;100.00;98798.03;5069583;28;20104;-38
2023/06/03 04:11:38;;;;;;;2.25;1.30;;;;;;;12.14;100.00;98801.56;5034763;28;20055;-40
2023/06/03 04:14:10;;;;;;;1.42;1.20;;;;;;;12.13;100.00;98810.31;5072252;28;20082;-38
2023/06/03 04:16:57;;;;;;;3.58;1.40;;;;;;;12.14;100.00;98801.56;5064948;28;20044;-38
2023/06/03 04:19:37;;;;;;;2.42;1.40;;;;;;;12.11;100.00;98796.53;5081379;28;20063;-39
2023/06/03 04:22:10;;;;;;;1.60;1.17;;;;;;;12.17;100.00;98806.63;5045994;28;20039;-38
2023/06/03 04:24:37;;;;;;;3.10;1.90;;;;;;;12.18;100.00;98802.25;5054702;28;20040;-38
2023/06/03 04:27:04;;;;;;;7.32;2.85;;;;;;;12.19;100.00;98809.16;5058359;28;20389;-38
2023/06/03 04:29:31;;;;;;;3.10;1.50;;;;;;;12.20;100.00;98805.59;5076642;28;20161;-38
2023/06/03 04:31:57;;;;;;;1.23;1.02;;;;;;;12.19;100.00;98801.34;5072053;28;20427;-37
2023/06/03 04:34:28;;;;;;;2.00;1.58;;;;;;;12.22;100.00;98794.16;5087627;28;20044;-38
2023/06/03 04:36:54;;;;;;;3.53;1.58;;;;;;;12.25;100.00;98801.81;5080746;28;20040;-38
2023/06/03 04:39:20;;;;;;;1.40;1.05;;;;;;;12.28;100.00;98801.66;5069165;28;20040;-39
2023/06/03 04:41:49;;;;;;;;;;;;;;;12.29;100.00;98807.72;5055139;28;20522;-38
2023/06/03 04:44:16;;;;;;;1.95;1.30;;;;;;;12.22;100.00;98807.19;5070021;28;19916;-38
2023/06/03 04:46:45;;;;;;;2.60;1.30;;;;;;;12.22;100.00;98812.41;5056161;28;20044;-38
2023/06/03 04:49:13;;;;;;;4.03;1.75;;;;;;;12.21;100.00;98809.88;5059571;28;20603;-38
2023/06/03 04:51:40;;;;;;;1.63;1.27;;;;;;;12.19;100.00;98814.34;5047584;28;20040;-38
2023/06/03 04:54:09;;;;;;;4.43;2.10;;;;;;;12.18;100.00;98812.66;5080688;28;20059;-38
2023/06/03 04:56:37;;;;;;;5.65;2.17;;;;;;;12.18;100.00;98817.88;5077577;28;20397;-38
2023/06/03 04:59:04;;;;;;;1.80;1.50;;;;;;;12.20;100.00;98829.03;5072988;28;20048;-43
2023/06/03 05:01:36;;;;;;;2.30;1.75;;;;;;;12.05;100.00;98806.44;5089807;28;20036;-51
2023/06/03 05:04:03;;;;;;;3.60;1.60;;;;;;;12.21;100.00;98825.53;5072452;28;20046;-38
2023/06/03 05:06:32;;;;;;;2.97;1.60;;;;;;;12.22;100.00;98827.22;5056028;28;20070;-39
2023/06/03 05:08:58;;;;;;;2.17;1.50;;;;;;;12.26;100.00;98832.16;5053993;28;20474;-39
2023/06/03 05:11:25;;;;;;;4.47;2.15;;;;;;;12.26;100.00;98841.75;5068043;28;20431;-38
2023/06/03 05:13:51;;;;;;;2.75;1.70;;;;;;;12.28;100.00;98842.50;5071580;28;20067;-39
2023/06/03 05:16:18;;;;;;;1.95;1.55;;;;;;;12.27;100.00;98840.81;5072574;28;20593;-39
2023/06/03 05:18:45;;;;;;;3.05;1.77;;;;;;;12.08;100.00;98817.53;5074101;28;20100;-39
2023/06/03 05:21:12;;;;;;;2.88;1.95;;;;;;;12.20;100.00;98837.69;5069806;28;20586;-38
2023/06/03 05:23:38;;;;;;;4.63;1.80;;;;;;;12.23;100.00;98831.50;5081318;28;20507;-39
2023/06/03 05:26:05;;;;;;;3.50;2.13;;;;;;;12.26;100.00;98824.34;5086119;28;20090;-41
